sensor_id;sensor_type;location;lat;lon;timestamp;temperature;humidity
49132;DHT22;35149;51.196;6.204;2022-09-24T00:01:32;17.40;66.20
49132;DHT22;35149;51.196;6.204;2022-09-24T00:04:02;17.30;66.00
49132;DHT22;35149;51.196;6.204;2022-09-24T00:06:34;17.30;66.00
49132;DHT22;35149;51.196;6.204;2022-09-24T00:09:04;17.30;66.30
49132;DHT22;35149;51.196;6.204;2022-09-24T00:11:31;17.30;66.00
49132;DHT22;35149;51.196;6.204;2022-09-24T00:14:01;17.30;66.20
49132;DHT22;35149;51.196;6.204;2022-09-24T00:16:28;17.20;66.20
49132;DHT22;35149;51.196;6.204;2022-09-24T00:19:00;17.20;66.20
49132;DHT22;35149;51.196;6.204;2022-09-24T00:21:38;17.20;66.30
49132;DHT22;35149;51.196;6.204;2022-09-24T00:24:08;17.20;66.90
49132;DHT22;35149;51.196;6.204;2022-09-24T00:26:36;17.20;66.40
49132;DHT22;35149;51.196;6.204;2022-09-24T00:29:23;17.10;66.30
49132;DHT22;35149;51.196;6.204;2022-09-24T00:31:52;17.20;66.30
49132;DHT22;35149;51.196;6.204;2022-09-24T00:34:19;17.10;66.30
49132;DHT22;35149;51.196;6.204;2022-09-24T00:36:46;17.10;66.40
49132;DHT22;35149;51.196;6.204;2022-09-24T00:39:14;17.10;66.40
49132;DHT22;35149;51.196;6.204;2022-09-24T00:41:42;17.10;66.40
49132;DHT22;35149;51.196;6.204;2022-09-24T00:47:33;17.00;67.20
49132;DHT22;35149;51.196;6.204;2022-09-24T00:50:09;17.00;67.00
49132;DHT22;35149;51.196;6.204;2022-09-24T00:52:50;17.00;66.40
49132;DHT22;35149;51.196;6.204;2022-09-24T00:55:19;17.00;66.90
49132;DHT22;35149;51.196;6.204;2022-09-24T00:57:48;17.00;66.70
49132;DHT22;35149;51.196;6.204;2022-09-24T01:00:15;16.90;66.80
49132;DHT22;35149;51.196;6.204;2022-09-24T01:02:44;16.90;66.80
49132;DHT22;35149;51.196;6.204;2022-09-24T01:05:12;16.90;67.00
49132;DHT22;35149;51.196;6.204;2022-09-24T01:07:39;16.90;67.00
49132;DHT22;35149;51.196;6.204;2022-09-24T01:10:06;16.90;67.10
49132;DHT22;35149;51.196;6.204;2022-09-24T01:13:05;16.90;67.10
49132;DHT22;35149;51.196;6.204;2022-09-24T01:15:47;16.90;67.80
49132;DHT22;35149;51.196;6.204;2022-09-24T01:18:25;16.90;67.20
49132;DHT22;35149;51.196;6.204;2022-09-24T01:29:38;16.90;67.10
49132;DHT22;35149;51.196;6.204;2022-09-24T01:34:51;16.80;67.00
49132;DHT22;35149;51.196;6.204;2022-09-24T01:37:21;16.80;67.00
49132;DHT22;35149;51.196;6.204;2022-09-24T01:39:51;16.80;66.90
49132;DHT22;35149;51.196;6.204;2022-09-24T01:42:20;16.80;66.90
49132;DHT22;35149;51.196;6.204;2022-09-24T01:44:47;16.60;66.80
49132;DHT22;35149;51.196;6.204;2022-09-24T01:47:21;16.70;66.90
49132;DHT22;35149;51.196;6.204;2022-09-24T01:49:48;16.70;67.20
49132;DHT22;35149;51.196;6.204;2022-09-24T01:52:23;16.70;67.10
49132;DHT22;35149;51.196;6.204;2022-09-24T01:54:51;16.70;67.30
49132;DHT22;35149;51.196;6.204;2022-09-24T01:57:23;16.70;67.10
49132;DHT22;35149;51.196;6.204;2022-09-24T02:00:04;16.70;67.30
49132;DHT22;35149;51.196;6.204;2022-09-24T02:10:51;16.60;67.60
49132;DHT22;35149;51.196;6.204;2022-09-24T02:13:24;16.60;67.80
49132;DHT22;35149;51.196;6.204;2022-09-24T02:15:57;16.60;67.30
49132;DHT22;35149;51.196;6.204;2022-09-24T02:18:29;16.60;67.60
49132;DHT22;35149;51.196;6.204;2022-09-24T02:20:58;16.60;67.60
49132;DHT22;35149;51.196;6.204;2022-09-24T02:23:27;16.60;67.60
49132;DHT22;35149;51.196;6.204;2022-09-24T02:25:58;16.60;67.70
49132;DHT22;35149;51.196;6.204;2022-09-24T02:28:25;16.60;67.90
49132;DHT22;35149;51.196;6.204;2022-09-24T02:30:58;16.60;67.70
49132;DHT22;35149;51.196;6.204;2022-09-24T02:33:29;16.60;67.90
49132;DHT22;35149;51.196;6.204;2022-09-24T02:36:15;16.60;67.90
49132;DHT22;35149;51.196;6.204;2022-09-24T02:38:42;16.60;67.70
49132;DHT22;35149;51.196;6.204;2022-09-24T02:41:12;16.60;67.80
49132;DHT22;35149;51.196;6.204;2022-09-24T02:43:39;16.60;67.90
49132;DHT22;35149;51.196;6.204;2022-09-24T02:46:07;16.60;67.90
49132;DHT22;35149;51.196;6.204;2022-09-24T02:48:36;16.60;67.90
49132;DHT22;35149;51.196;6.204;2022-09-24T02:51:04;16.60;67.90
49132;DHT22;35149;51.196;6.204;2022-09-24T02:53:31;16.60;68.60
49132;DHT22;35149;51.196;6.204;2022-09-24T02:55:58;16.60;67.90
49132;DHT22;35149;51.196;6.204;2022-09-24T02:58:29;16.60;67.90
49132;DHT22;35149;51.196;6.204;2022-09-24T03:00:56;16.60;67.90
49132;DHT22;35149;51.196;6.204;2022-09-24T03:03:25;16.60;68.00
49132;DHT22;35149;51.196;6.204;2022-09-24T03:05:52;16.60;68.00
49132;DHT22;35149;51.196;6.204;2022-09-24T03:08:23;16.70;68.00
49132;DHT22;35149;51.196;6.204;2022-09-24T03:10:52;16.70;68.00
49132;DHT22;35149;51.196;6.204;2022-09-24T03:13:21;16.70;67.90
49132;DHT22;35149;51.196;6.204;2022-09-24T03:15:48;16.60;68.50
49132;DHT22;35149;51.196;6.204;2022-09-24T03:18:14;16.60;67.90
49132;DHT22;35149;51.196;6.204;2022-09-24T03:20:41;16.60;67.90
49132;DHT22;35149;51.196;6.204;2022-09-24T03:23:08;16.60;67.90
49132;DHT22;35149;51.196;6.204;2022-09-24T03:25:36;16.60;67.90
49132;DHT22;35149;51.196;6.204;2022-09-24T03:28:03;16.60;67.90
49132;DHT22;35149;51.196;6.204;2022-09-24T03:30:29;16.60;67.90
49132;DHT22;35149;51.196;6.204;2022-09-24T03:33:14;16.60;67.90
49132;DHT22;35149;51.196;6.204;2022-09-24T03:35:41;16.60;67.90
49132;DHT22;35149;51.196;6.204;2022-09-24T03:38:08;16.60;67.90
49132;DHT22;35149;51.196;6.204;2022-09-24T03:40:36;16.60;67.90
49132;DHT22;35149;51.196;6.204;2022-09-24T03:43:04;16.60;67.90
49132;DHT22;35149;51.196;6.204;2022-09-24T03:45:31;16.60;67.90
49132;DHT22;35149;51.196;6.204;2022-09-24T03:47:57;16.60;67.90
49132;DHT22;35149;51.196;6.204;2022-09-24T03:50:24;16.60;68.00
49132;DHT22;35149;51.196;6.204;2022-09-24T03:52:51;16.60;67.90
49132;DHT22;35149;51.196;6.204;2022-09-24T03:55:20;16.50;67.90
49132;DHT22;35149;51.196;6.204;2022-09-24T03:57:49;16.50;67.90
49132;DHT22;35149;51.196;6.204;2022-09-24T04:00:15;16.50;68.00
49132;DHT22;35149;51.196;6.204;2022-09-24T04:02:42;16.50;68.10
49132;DHT22;35149;51.196;6.204;2022-09-24T04:05:12;16.50;68.20
49132;DHT22;35149;51.196;6.204;2022-09-24T04:07:39;16.50;68.20
49132;DHT22;35149;51.196;6.204;2022-09-24T04:10:07;16.50;68.90
49132;DHT22;35149;51.196;6.204;2022-09-24T04:12:34;16.50;68.20
49132;DHT22;35149;51.196;6.204;2022-09-24T04:15:03;16.50;68.20
49132;DHT22;35149;51.196;6.204;2022-09-24T04:17:30;16.50;68.30
49132;DHT22;35149;51.196;6.204;2022-09-24T04:19:57;16.50;68.30
49132;DHT22;35149;51.196;6.204;2022-09-24T04:22:24;16.50;68.20
49132;DHT22;35149;51.196;6.204;2022-09-24T04:24:51;16.50;68.20
49132;DHT22;35149;51.196;6.204;2022-09-24T04:27:18;16.50;68.30
49132;DHT22;35149;51.196;6.204;2022-09-24T04:29:44;16.50;68.30
49132;DHT22;35149;51.196;6.204;2022-09-24T04:32:13;16.50;68.30
49132;DHT22;35149;51.196;6.204;2022-09-24T04:34:40;16.50;68.30
49132;DHT22;35149;51.196;6.204;2022-09-24T04:37:06;16.50;68.30
49132;DHT22;35149;51.196;6.204;2022-09-24T04:39:35;16.50;68.40
49132;DHT22;35149;51.196;6.204;2022-09-24T04:42:01;16.40;68.30
49132;DHT22;35149;51.196;6.204;2022-09-24T04:44:28;16.50;68.40
49132;DHT22;35149;51.196;6.204;2022-09-24T04:46:55;16.50;68.40
49132;DHT22;35149;51.196;6.204;2022-09-24T04:49:26;16.40;68.40
49132;DHT22;35149;51.196;6.204;2022-09-24T04:51:53;16.50;68.40
49132;DHT22;35149;51.196;6.204;2022-09-24T04:54:19;16.50;68.40
49132;DHT22;35149;51.196;6.204;2022-09-24T04:56:48;16.50;68.50
49132;DHT22;35149;51.196;6.204;2022-09-24T04:59:17;16.40;68.50
49132;DHT22;35149;51.196;6.204;2022-09-24T05:01:44;16.40;68.50
49132;DHT22;35149;51.196;6.204;2022-09-24T05:04:11;16.50;68.70
49132;DHT22;35149;51.196;6.204;2022-09-24T05:06:38;16.40;68.60
49132;DHT22;35149;51.196;6.204;2022-09-24T05:09:05;16.50;68.70
49132;DHT22;35149;51.196;6.204;2022-09-24T05:11:38;16.50;68.70
49132;DHT22;35149;51.196;6.204;2022-09-24T05:14:04;16.40;68.70
49132;DHT22;35149;51.196;6.204;2022-09-24T05:16:33;16.50;68.80
49132;DHT22;35149;51.196;6.204;2022-09-24T05:19:00;16.40;68.90
49132;DHT22;35149;51.196;6.204;2022-09-24T05:21:30;16.40;69.00
49132;DHT22;35149;51.196;6.204;2022-09-24T05:23:57;16.40;69.10
49132;DHT22;35149;51.196;6.204;2022-09-24T05:26:23;16.50;69.20
49132;DHT22;35149;51.196;6.204;2022-09-24T05:29:09;16.40;69.20
49132;DHT22;35149;51.196;6.204;2022-09-24T05:31:35;16.50;69.20
49132;DHT22;35149;51.196;6.204;2022-09-24T05:34:04;16.50;69.30
49132;DHT22;35149;51.196;6.204;2022-09-24T05:36:30;16.50;69.40
49132;DHT22;35149;51.196;6.204;2022-09-24T05:38:57;16.50;69.50
49132;DHT22;35149;51.196;6.204;2022-09-24T05:41:24;16.50;69.60
49132;DHT22;35149;51.196;6.204;2022-09-24T05:43:50;16.50;69.60
49132;DHT22;35149;51.196;6.204;2022-09-24T05:46:17;16.50;69.50
49132;DHT22;35149;51.196;6.204;2022-09-24T05:48:44;16.50;69.60
49132;DHT22;35149;51.196;6.204;2022-09-24T05:51:10;16.50;69.50
49132;DHT22;35149;51.196;6.204;2022-09-24T05:53:37;16.50;69.50
49132;DHT22;35149;51.196;6.204;2022-09-24T05:56:06;16.50;69.60
49132;DHT22;35149;51.196;6.204;2022-09-24T05:58:32;16.50;69.60
49132;DHT22;35149;51.196;6.204;2022-09-24T06:00:59;16.50;69.70
49132;DHT22;35149;51.196;6.204;2022-09-24T06:03:27;16.50;69.80
49132;DHT22;35149;51.196;6.204;2022-09-24T06:05:55;16.50;69.90
49132;DHT22;35149;51.196;6.204;2022-09-24T06:08:23;16.50;69.90
49132;DHT22;35149;51.196;6.204;2022-09-24T06:10:58;16.60;69.80
49132;DHT22;35149;51.196;6.204;2022-09-24T06:13:25;16.50;69.80
49132;DHT22;35149;51.196;6.204;2022-09-24T06:15:52;16.60;69.70
49132;DHT22;35149;51.196;6.204;2022-09-24T06:18:18;16.60;69.70
49132;DHT22;35149;51.196;6.204;2022-09-24T06:20:47;16.60;69.80
49132;DHT22;35149;51.196;6.204;2022-09-24T06:23:14;16.60;69.80
49132;DHT22;35149;51.196;6.204;2022-09-24T06:25:41;16.60;69.70
49132;DHT22;35149;51.196;6.204;2022-09-24T06:28:07;16.60;69.70
49132;DHT22;35149;51.196;6.204;2022-09-24T06:30:36;16.60;69.60
49132;DHT22;35149;51.196;6.204;2022-09-24T06:33:07;16.60;69.70
49132;DHT22;35149;51.196;6.204;2022-09-24T06:35:36;16.70;69.90
49132;DHT22;35149;51.196;6.204;2022-09-24T06:38:04;16.70;69.20
49132;DHT22;35149;51.196;6.204;2022-09-24T06:40:31;16.70;69.40
49132;DHT22;35149;51.196;6.204;2022-09-24T06:43:06;16.70;69.50
49132;DHT22;35149;51.196;6.204;2022-09-24T06:45:35;16.70;69.50
49132;DHT22;35149;51.196;6.204;2022-09-24T06:48:04;16.70;69.60
49132;DHT22;35149;51.196;6.204;2022-09-24T06:50:33;16.70;69.70
49132;DHT22;35149;51.196;6.204;2022-09-24T06:53:03;16.70;69.80
49132;DHT22;35149;51.196;6.204;2022-09-24T06:55:30;16.70;70.00
49132;DHT22;35149;51.196;6.204;2022-09-24T07:00:31;16.70;70.10
49132;DHT22;35149;51.196;6.204;2022-09-24T07:02:57;16.80;69.90
49132;DHT22;35149;51.196;6.204;2022-09-24T07:05:24;16.80;70.00
49132;DHT22;35149;51.196;6.204;2022-09-24T07:07:53;16.90;70.10
49132;DHT22;35149;51.196;6.204;2022-09-24T07:10:20;16.90;70.10
49132;DHT22;35149;51.196;6.204;2022-09-24T07:12:46;17.00;70.10
49132;DHT22;35149;51.196;6.204;2022-09-24T07:15:13;17.00;70.00
49132;DHT22;35149;51.196;6.204;2022-09-24T07:17:40;17.10;70.00
49132;DHT22;35149;51.196;6.204;2022-09-24T07:20:07;17.20;69.80
49132;DHT22;35149;51.196;6.204;2022-09-24T07:22:38;17.30;69.40
49132;DHT22;35149;51.196;6.204;2022-09-24T07:25:10;17.30;69.40
49132;DHT22;35149;51.196;6.204;2022-09-24T07:27:38;17.40;69.40
49132;DHT22;35149;51.196;6.204;2022-09-24T07:30:06;17.50;69.20
49132;DHT22;35149;51.196;6.204;2022-09-24T07:32:35;17.50;69.00
49132;DHT22;35149;51.196;6.204;2022-09-24T07:35:02;17.60;68.80
49132;DHT22;35149;51.196;6.204;2022-09-24T07:37:28;17.60;68.50
49132;DHT22;35149;51.196;6.204;2022-09-24T07:39:58;17.70;68.40
49132;DHT22;35149;51.196;6.204;2022-09-24T07:42:24;17.70;68.30
49132;DHT22;35149;51.196;6.204;2022-09-24T07:44:51;17.70;68.10
49132;DHT22;35149;51.196;6.204;2022-09-24T07:47:18;17.80;68.00
49132;DHT22;35149;51.196;6.204;2022-09-24T07:49:47;17.80;67.90
49132;DHT22;35149;51.196;6.204;2022-09-24T07:52:13;17.80;67.60
49132;DHT22;35149;51.196;6.204;2022-09-24T07:54:43;17.80;67.70
49132;DHT22;35149;51.196;6.204;2022-09-24T07:57:10;17.90;67.60
49132;DHT22;35149;51.196;6.204;2022-09-24T07:59:40;17.90;67.90
49132;DHT22;35149;51.196;6.204;2022-09-24T08:02:14;17.90;67.70
49132;DHT22;35149;51.196;6.204;2022-09-24T08:04:43;17.90;67.80
49132;DHT22;35149;51.196;6.204;2022-09-24T08:07:13;17.90;67.70
49132;DHT22;35149;51.196;6.204;2022-09-24T08:09:40;18.00;67.80
49132;DHT22;35149;51.196;6.204;2022-09-24T08:12:09;18.00;67.80
49132;DHT22;35149;51.196;6.204;2022-09-24T08:14:37;18.00;68.00
49132;DHT22;35149;51.196;6.204;2022-09-24T08:17:07;18.10;68.20
49132;DHT22;35149;51.196;6.204;2022-09-24T08:19:33;18.10;68.40
49132;DHT22;35149;51.196;6.204;2022-09-24T08:22:00;18.20;68.60
49132;DHT22;35149;51.196;6.204;2022-09-24T08:24:28;18.20;68.40
49132;DHT22;35149;51.196;6.204;2022-09-24T08:26:57;18.30;68.30
49132;DHT22;35149;51.196;6.204;2022-09-24T08:29:24;18.40;68.10
49132;DHT22;35149;51.196;6.204;2022-09-24T08:31:50;18.50;68.10
49132;DHT22;35149;51.196;6.204;2022-09-24T08:34:17;18.60;67.80
49132;DHT22;35149;51.196;6.204;2022-09-24T08:36:44;18.70;67.50
49132;DHT22;35149;51.196;6.204;2022-09-24T08:39:10;18.80;67.50
49132;DHT22;35149;51.196;6.204;2022-09-24T08:42:00;18.90;66.80
49132;DHT22;35149;51.196;6.204;2022-09-24T08:44:42;19.00;66.40
49132;DHT22;35149;51.196;6.204;2022-09-24T09:00:35;19.30;64.80
49132;DHT22;35149;51.196;6.204;2022-09-24T09:06:00;19.40;64.50
49132;DHT22;35149;51.196;6.204;2022-09-24T09:08:55;19.40;64.40
49132;DHT22;35149;51.196;6.204;2022-09-24T09:11:39;19.40;63.90
49132;DHT22;35149;51.196;6.204;2022-09-24T09:14:33;19.50;63.80
49132;DHT22;35149;51.196;6.204;2022-09-24T09:17:25;19.60;63.70
49132;DHT22;35149;51.196;6.204;2022-09-24T09:19:55;19.60;63.20
49132;DHT22;35149;51.196;6.204;2022-09-24T09:22:28;19.70;63.20
49132;DHT22;35149;51.196;6.204;2022-09-24T09:25:22;19.70;62.80
49132;DHT22;35149;51.196;6.204;2022-09-24T09:28:08;19.70;62.10
49132;DHT22;35149;51.196;6.204;2022-09-24T09:30:57;19.80;61.80
49132;DHT22;35149;51.196;6.204;2022-09-24T09:33:55;19.80;62.00
49132;DHT22;35149;51.196;6.204;2022-09-24T09:36:41;19.80;62.10
49132;DHT22;35149;51.196;6.204;2022-09-24T09:44:42;19.90;62.40
49132;DHT22;35149;51.196;6.204;2022-09-24T09:49:52;19.90;62.20
49132;DHT22;35149;51.196;6.204;2022-09-24T09:52:26;19.90;63.00
49132;DHT22;35149;51.196;6.204;2022-09-24T09:54:54;19.90;62.50
49132;DHT22;35149;51.196;6.204;2022-09-24T09:57:24;20.00;62.40
49132;DHT22;35149;51.196;6.204;2022-09-24T09:59:52;20.00;61.50
49132;DHT22;35149;51.196;6.204;2022-09-24T10:02:24;20.10;61.30
49132;DHT22;35149;51.196;6.204;2022-09-24T10:04:55;20.10;60.70
49132;DHT22;35149;51.196;6.204;2022-09-24T10:07:23;20.20;60.80
49132;DHT22;35149;51.196;6.204;2022-09-24T10:10:19;20.20;60.40
49132;DHT22;35149;51.196;6.204;2022-09-24T10:12:52;20.30;59.90
49132;DHT22;35149;51.196;6.204;2022-09-24T10:15:22;20.30;60.50
49132;DHT22;35149;51.196;6.204;2022-09-24T10:17:52;20.40;59.90
49132;DHT22;35149;51.196;6.204;2022-09-24T10:20:24;20.40;60.40
49132;DHT22;35149;51.196;6.204;2022-09-24T10:23:00;20.50;60.40
49132;DHT22;35149;51.196;6.204;2022-09-24T10:25:29;20.60;59.70
49132;DHT22;35149;51.196;6.204;2022-09-24T10:27:59;20.70;59.80
49132;DHT22;35149;51.196;6.204;2022-09-24T10:30:52;20.70;59.60
49132;DHT22;35149;51.196;6.204;2022-09-24T10:33:23;20.80;58.90
49132;DHT22;35149;51.196;6.204;2022-09-24T10:35:49;20.90;59.60
49132;DHT22;35149;51.196;6.204;2022-09-24T10:38:20;21.00;59.40
49132;DHT22;35149;51.196;6.204;2022-09-24T10:40:47;21.10;59.50
49132;DHT22;35149;51.196;6.204;2022-09-24T10:43:19;21.10;59.10
49132;DHT22;35149;51.196;6.204;2022-09-24T10:49:04;21.30;58.70
49132;DHT22;35149;51.196;6.204;2022-09-24T10:51:50;21.30;58.60
49132;DHT22;35149;51.196;6.204;2022-09-24T10:56:55;21.40;59.40
49132;DHT22;35149;51.196;6.204;2022-09-24T10:59:46;21.30;58.60
49132;DHT22;35149;51.196;6.204;2022-09-24T11:07:35;21.20;58.60
49132;DHT22;35149;51.196;6.204;2022-09-24T11:18:59;21.30;58.20
49132;DHT22;35149;51.196;6.204;2022-09-24T11:24:21;21.30;58.20
49132;DHT22;35149;51.196;6.204;2022-09-24T11:34:36;21.50;57.80
49132;DHT22;35149;51.196;6.204;2022-09-24T11:45:32;21.60;56.20
49132;DHT22;35149;51.196;6.204;2022-09-24T11:48:18;21.80;55.90
49132;DHT22;35149;51.196;6.204;2022-09-24T11:53:50;21.80;56.30
49132;DHT22;35149;51.196;6.204;2022-09-24T11:56:29;21.90;55.40
49132;DHT22;35149;51.196;6.204;2022-09-24T11:59:21;21.90;55.40
49132;DHT22;35149;51.196;6.204;2022-09-24T12:01:57;22.00;54.80
49132;DHT22;35149;51.196;6.204;2022-09-24T12:04:52;22.10;55.40
49132;DHT22;35149;51.196;6.204;2022-09-24T12:07:33;22.10;55.40
49132;DHT22;35149;51.196;6.204;2022-09-24T12:10:23;22.20;55.00
49132;DHT22;35149;51.196;6.204;2022-09-24T12:12:58;22.20;55.10
49132;DHT22;35149;51.196;6.204;2022-09-24T12:15:40;22.30;55.30
49132;DHT22;35149;51.196;6.204;2022-09-24T12:18:16;22.40;54.20
49132;DHT22;35149;51.196;6.204;2022-09-24T12:20:58;22.40;55.00
49132;DHT22;35149;51.196;6.204;2022-09-24T12:23:29;22.50;55.50
49132;DHT22;35149;51.196;6.204;2022-09-24T12:26:02;22.60;54.70
49132;DHT22;35149;51.196;6.204;2022-09-24T12:28:49;22.60;54.30
49132;DHT22;35149;51.196;6.204;2022-09-24T12:35:07;22.70;53.80
49132;DHT22;35149;51.196;6.204;2022-09-24T12:37:39;22.80;53.10
49132;DHT22;35149;51.196;6.204;2022-09-24T12:42:46;22.80;53.70
49132;DHT22;35149;51.196;6.204;2022-09-24T12:45:19;22.80;53.00
49132;DHT22;35149;51.196;6.204;2022-09-24T12:47:57;22.80;53.00
49132;DHT22;35149;51.196;6.204;2022-09-24T12:50:32;22.90;53.90
49132;DHT22;35149;51.196;6.204;2022-09-24T12:53:21;22.90;53.40
49132;DHT22;35149;51.196;6.204;2022-09-24T12:55:51;22.90;53.20
49132;DHT22;35149;51.196;6.204;2022-09-24T12:58:41;22.90;53.70
49132;DHT22;35149;51.196;6.204;2022-09-24T13:01:28;23.00;52.80
49132;DHT22;35149;51.196;6.204;2022-09-24T13:04:24;23.00;52.90
49132;DHT22;35149;51.196;6.204;2022-09-24T13:06:51;23.10;53.40
49132;DHT22;35149;51.196;6.204;2022-09-24T13:09:38;23.10;53.00
49132;DHT22;35149;51.196;6.204;2022-09-24T13:12:31;23.20;52.20
49132;DHT22;35149;51.196;6.204;2022-09-24T13:15:01;23.30;52.60
49132;DHT22;35149;51.196;6.204;2022-09-24T13:17:32;23.30;52.30
49132;DHT22;35149;51.196;6.204;2022-09-24T13:20:25;23.30;52.20
49132;DHT22;35149;51.196;6.204;2022-09-24T13:22:55;23.20;51.70
49132;DHT22;35149;51.196;6.204;2022-09-24T13:25:25;23.20;52.60
49132;DHT22;35149;51.196;6.204;2022-09-24T13:28:18;23.10;52.30
49132;DHT22;35149;51.196;6.204;2022-09-24T13:30:47;23.00;52.10
49132;DHT22;35149;51.196;6.204;2022-09-24T13:33:19;22.80;52.50
49132;DHT22;35149;51.196;6.204;2022-09-24T13:36:17;22.80;52.80
49132;DHT22;35149;51.196;6.204;2022-09-24T13:42:03;22.50;52.70
49132;DHT22;35149;51.196;6.204;2022-09-24T13:44:40;22.30;53.30
49132;DHT22;35149;51.196;6.204;2022-09-24T13:50:13;22.10;54.60
49132;DHT22;35149;51.196;6.204;2022-09-24T13:52:53;21.90;54.80
49132;DHT22;35149;51.196;6.204;2022-09-24T13:55:24;21.80;55.40
49132;DHT22;35149;51.196;6.204;2022-09-24T13:57:53;21.70;56.00
49132;DHT22;35149;51.196;6.204;2022-09-24T14:00:27;21.50;56.50
49132;DHT22;35149;51.196;6.204;2022-09-24T14:02:56;21.50;56.90
49132;DHT22;35149;51.196;6.204;2022-09-24T14:05:25;21.30;57.00
49132;DHT22;35149;51.196;6.204;2022-09-24T14:08:04;21.30;57.70
49132;DHT22;35149;51.196;6.204;2022-09-24T14:10:32;21.20;58.50
49132;DHT22;35149;51.196;6.204;2022-09-24T14:13:21;21.10;58.70
49132;DHT22;35149;51.196;6.204;2022-09-24T14:15:53;21.00;59.20
49132;DHT22;35149;51.196;6.204;2022-09-24T14:18:21;20.90;60.30
49132;DHT22;35149;51.196;6.204;2022-09-24T14:21:06;20.80;60.60
49132;DHT22;35149;51.196;6.204;2022-09-24T14:23:48;20.70;60.90
49132;DHT22;35149;51.196;6.204;2022-09-24T14:26:33;20.70;60.50
49132;DHT22;35149;51.196;6.204;2022-09-24T14:29:25;20.60;60.40
49132;DHT22;35149;51.196;6.204;2022-09-24T14:32:00;20.50;61.20
49132;DHT22;35149;51.196;6.204;2022-09-24T14:34:35;20.40;60.70
49132;DHT22;35149;51.196;6.204;2022-09-24T14:37:16;20.30;61.20
49132;DHT22;35149;51.196;6.204;2022-09-24T14:39:46;20.30;61.20
49132;DHT22;35149;51.196;6.204;2022-09-24T14:42:24;20.20;62.00
49132;DHT22;35149;51.196;6.204;2022-09-24T14:44:52;20.10;63.00
49132;DHT22;35149;51.196;6.204;2022-09-24T14:47:28;20.00;62.70
49132;DHT22;35149;51.196;6.204;2022-09-24T14:49:55;20.00;63.30
49132;DHT22;35149;51.196;6.204;2022-09-24T14:52:40;20.00;63.10
49132;DHT22;35149;51.196;6.204;2022-09-24T14:55:17;19.90;63.50
49132;DHT22;35149;51.196;6.204;2022-09-24T14:57:45;19.90;63.30
49132;DHT22;35149;51.196;6.204;2022-09-24T15:02:55;19.80;62.70
49132;DHT22;35149;51.196;6.204;2022-09-24T15:05:25;19.80;63.40
49132;DHT22;35149;51.196;6.204;2022-09-24T15:08:25;19.80;63.50
49132;DHT22;35149;51.196;6.204;2022-09-24T15:11:03;19.80;63.90
49132;DHT22;35149;51.196;6.204;2022-09-24T15:13:32;19.80;63.60
49132;DHT22;35149;51.196;6.204;2022-09-24T15:16:17;19.80;63.60
49132;DHT22;35149;51.196;6.204;2022-09-24T15:19:00;19.80;63.90
49132;DHT22;35149;51.196;6.204;2022-09-24T15:21:36;19.70;63.60
49132;DHT22;35149;51.196;6.204;2022-09-24T15:24:03;19.70;63.20
49132;DHT22;35149;51.196;6.204;2022-09-24T15:26:32;19.70;63.30
49132;DHT22;35149;51.196;6.204;2022-09-24T15:29:03;19.60;63.70
49132;DHT22;35149;51.196;6.204;2022-09-24T15:31:30;19.60;64.30
49132;DHT22;35149;51.196;6.204;2022-09-24T15:33:57;19.50;64.20
49132;DHT22;35149;51.196;6.204;2022-09-24T15:36:24;19.40;64.30
49132;DHT22;35149;51.196;6.204;2022-09-24T15:38:51;19.40;64.50
49132;DHT22;35149;51.196;6.204;2022-09-24T15:41:23;19.30;64.40
49132;DHT22;35149;51.196;6.204;2022-09-24T15:43:56;19.30;65.00
49132;DHT22;35149;51.196;6.204;2022-09-24T15:46:26;19.30;64.60
49132;DHT22;35149;51.196;6.204;2022-09-24T15:48:54;19.20;64.40
49132;DHT22;35149;51.196;6.204;2022-09-24T15:51:21;19.20;64.50
49132;DHT22;35149;51.196;6.204;2022-09-24T15:53:49;19.10;64.50
49132;DHT22;35149;51.196;6.204;2022-09-24T15:56:16;19.10;65.40
49132;DHT22;35149;51.196;6.204;2022-09-24T15:58:45;19.10;65.60
49132;DHT22;35149;51.196;6.204;2022-09-24T16:01:16;19.00;65.20
49132;DHT22;35149;51.196;6.204;2022-09-24T16:03:45;19.00;65.60
49132;DHT22;35149;51.196;6.204;2022-09-24T16:06:12;19.00;65.80
49132;DHT22;35149;51.196;6.204;2022-09-24T16:08:40;19.00;66.10
49132;DHT22;35149;51.196;6.204;2022-09-24T16:11:08;19.00;66.40
49132;DHT22;35149;51.196;6.204;2022-09-24T16:13:35;19.00;66.70
49132;DHT22;35149;51.196;6.204;2022-09-24T16:16:05;19.00;66.90
49132;DHT22;35149;51.196;6.204;2022-09-24T16:18:32;19.00;67.10
49132;DHT22;35149;51.196;6.204;2022-09-24T16:20:59;19.00;66.90
49132;DHT22;35149;51.196;6.204;2022-09-24T16:23:25;19.00;67.20
49132;DHT22;35149;51.196;6.204;2022-09-24T16:25:57;19.00;67.40
49132;DHT22;35149;51.196;6.204;2022-09-24T16:28:25;19.00;67.70
49132;DHT22;35149;51.196;6.204;2022-09-24T16:30:52;19.00;67.30
49132;DHT22;35149;51.196;6.204;2022-09-24T16:33:19;19.00;67.00
49132;DHT22;35149;51.196;6.204;2022-09-24T16:35:46;19.00;66.90
49132;DHT22;35149;51.196;6.204;2022-09-24T16:38:13;19.00;66.80
49132;DHT22;35149;51.196;6.204;2022-09-24T16:40:47;19.00;66.60
49132;DHT22;35149;51.196;6.204;2022-09-24T16:43:14;18.90;66.70
49132;DHT22;35149;51.196;6.204;2022-09-24T16:45:41;18.90;66.60
49132;DHT22;35149;51.196;6.204;2022-09-24T16:48:10;18.90;66.50
49132;DHT22;35149;51.196;6.204;2022-09-24T16:50:37;18.90;66.60
49132;DHT22;35149;51.196;6.204;2022-09-24T16:53:06;18.80;66.60
49132;DHT22;35149;51.196;6.204;2022-09-24T16:55:33;18.70;66.70
49132;DHT22;35149;51.196;6.204;2022-09-24T16:58:00;18.70;66.90
49132;DHT22;35149;51.196;6.204;2022-09-24T17:00:30;18.70;67.00
49132;DHT22;35149;51.196;6.204;2022-09-24T17:02:57;18.60;67.20
49132;DHT22;35149;51.196;6.204;2022-09-24T17:05:26;18.60;67.30
49132;DHT22;35149;51.196;6.204;2022-09-24T17:07:53;18.60;67.40
49132;DHT22;35149;51.196;6.204;2022-09-24T17:10:19;18.60;67.50
49132;DHT22;35149;51.196;6.204;2022-09-24T17:12:49;18.50;67.60
49132;DHT22;35149;51.196;6.204;2022-09-24T17:15:18;18.40;67.80
49132;DHT22;35149;51.196;6.204;2022-09-24T17:17:46;18.40;67.90
49132;DHT22;35149;51.196;6.204;2022-09-24T17:20:19;18.30;68.00
49132;DHT22;35149;51.196;6.204;2022-09-24T17:22:46;18.30;68.60
49132;DHT22;35149;51.196;6.204;2022-09-24T17:25:14;18.30;68.60
49132;DHT22;35149;51.196;6.204;2022-09-24T17:27:42;18.30;68.70
49132;DHT22;35149;51.196;6.204;2022-09-24T17:30:10;18.20;68.80
49132;DHT22;35149;51.196;6.204;2022-09-24T17:32:37;18.20;69.10
49132;DHT22;35149;51.196;6.204;2022-09-24T17:35:04;18.20;69.20
49132;DHT22;35149;51.196;6.204;2022-09-24T17:37:38;18.20;69.10
49132;DHT22;35149;51.196;6.204;2022-09-24T17:40:05;18.20;69.10
49132;DHT22;35149;51.196;6.204;2022-09-24T17:42:33;18.20;69.20
49132;DHT22;35149;51.196;6.204;2022-09-24T17:44:59;18.20;69.20